createdAt,value
2018-10-15T00:01:25.431Z,74.08
2018-10-15T00:02:24.903Z,73.79
2018-10-15T00:04:19.860Z,73.88
2018-10-15T00:05:19.858Z,74.27
2018-10-15T00:07:13.825Z,73.69
2018-10-15T00:08:14.329Z,73.56
2018-10-15T00:10:08.269Z,73.79
2018-10-15T00:11:08.764Z,73.88
2018-10-15T00:13:02.703Z,73.88
2018-10-15T00:14:02.712Z,73.60
2018-10-15T00:15:56.164Z,73.31
2018-10-15T00:16:56.160Z,73.69
2018-10-15T00:18:50.594Z,73.88
2018-10-15T00:19:50.598Z,73.98
2018-10-15T00:21:45.058Z,73.69
2018-10-15T00:22:45.572Z,73.50
2018-10-15T00:24:39.497Z,73.41
2018-10-15T00:25:40.014Z,73.69
2018-10-15T00:27:35.962Z,73.69
2018-10-15T00:28:34.465Z,73.69
2018-10-15T00:30:30.923Z,73.88
2018-10-15T00:31:29.914Z,73.66
2018-10-15T00:33:24.378Z,73.41
2018-10-15T00:34:24.359Z,73.60
2018-10-15T00:36:19.314Z,73.60
2018-10-15T00:37:18.803Z,73.79
2018-10-15T00:39:13.240Z,74.08
2018-10-15T00:40:13.769Z,73.69
2018-10-15T00:42:07.225Z,74.08
2018-10-15T00:43:06.695Z,73.79
2018-10-15T00:45:01.655Z,73.88
2018-10-15T00:46:01.118Z,74.08
2018-10-15T00:47:54.574Z,73.79
2018-10-15T00:48:55.502Z,73.88
2018-10-15T00:50:48.983Z,73.88
2018-10-15T00:51:49.013Z,73.79
2018-10-15T00:53:45.454Z,74.08
2018-10-15T00:54:44.935Z,73.66
2018-10-15T00:56:38.369Z,73.98
2018-10-15T00:57:38.890Z,74.27
2018-10-15T00:59:34.343Z,74.43
2018-10-15T01:00:32.830Z,74.52
2018-10-15T01:02:27.308Z,74.37
2018-10-15T01:03:27.266Z,74.43
2018-10-15T01:05:21.690Z,73.88
2018-10-15T01:06:21.694Z,74.27
2018-10-15T01:08:16.154Z,74.46
2018-10-15T01:09:16.152Z,74.55
2018-10-15T01:11:10.633Z,74.43
2018-10-15T01:12:11.103Z,74.90
2018-10-15T01:14:05.567Z,74.62
2018-10-15T01:15:05.062Z,74.90
2018-10-15T01:17:01.030Z,75.57
2018-10-15T01:18:01.019Z,75.29
2018-10-15T01:19:54.460Z,75.48
2018-10-15T01:20:54.455Z,75.87
2018-10-15T01:22:48.917Z,76.25
2018-10-15T01:23:47.925Z,76.06
2018-10-15T01:25:44.391Z,76.54
2018-10-15T01:26:43.843Z,76.54
2018-10-15T01:28:38.282Z,76.64
2018-10-15T01:29:38.293Z,76.44
2018-10-15T01:31:33.756Z,76.50
2018-10-15T01:32:33.246Z,76.88
2018-10-15T01:34:26.718Z,76.88
2018-10-15T01:35:26.193Z,76.88
2018-10-15T01:37:22.654Z,77.26
2018-10-15T01:38:22.639Z,76.88
2018-10-15T01:40:17.146Z,76.88
2018-10-15T01:41:16.593Z,77.08
2018-10-15T01:43:11.031Z,77.08
2018-10-15T01:44:11.030Z,77.26
2018-10-15T01:46:05.491Z,76.98
2018-10-15T01:47:05.469Z,76.98
2018-10-15T01:48:59.919Z,76.98
2018-10-15T01:49:59.919Z,76.88
2018-10-15T01:51:55.383Z,76.40
2018-10-15T01:52:54.390Z,76.88
2018-10-15T01:54:48.338Z,77.08
2018-10-15T01:55:48.341Z,77.17
2018-10-15T01:57:43.777Z,77.36
2018-10-15T01:58:43.734Z,76.88
2018-10-15T02:00:37.216Z,76.98
2018-10-15T02:01:37.202Z,77.17
2018-10-15T02:03:31.604Z,76.98
2018-10-15T02:04:31.615Z,77.08
2018-10-15T02:06:26.586Z,76.88
2018-10-15T02:07:26.071Z,77.17
2018-10-15T02:09:21.044Z,76.98
2018-10-15T02:10:20.558Z,76.69
2018-10-15T02:12:16.521Z,76.98
2018-10-15T02:13:16.994Z,76.98
2018-10-15T02:15:10.899Z,76.40
2018-10-15T02:16:11.434Z,76.59
2018-10-15T02:18:05.343Z,76.21
2018-10-15T02:19:05.352Z,75.63
2018-10-15T02:20:59.778Z,75.73
2018-10-15T02:21:59.785Z,75.25
2018-10-15T02:23:55.744Z,75.06
2018-10-15T02:24:54.741Z,74.77
2018-10-15T02:26:47.712Z,74.01
2018-10-15T02:27:47.700Z,74.48
2018-10-15T02:29:42.135Z,74.58
2018-10-15T02:30:42.135Z,74.29
2018-10-15T02:32:36.580Z,73.91
2018-10-15T02:33:36.079Z,73.91
2018-10-15T02:35:32.036Z,73.52
2018-10-15T02:36:31.483Z,73.24
2018-10-15T02:38:25.939Z,72.85
2018-10-15T02:39:25.927Z,72.66
2018-10-15T02:41:20.363Z,72.85
2018-10-15T02:42:20.379Z,72.37
2018-10-15T02:44:17.334Z,73.14
2018-10-15T02:45:17.338Z,73.04
2018-10-15T02:47:10.854Z,72.66
2018-10-15T02:48:10.844Z,72.37
2018-10-15T02:50:06.739Z,72.85
2018-10-15T02:51:05.808Z,72.75
2018-10-15T02:52:59.755Z,73.04
2018-10-15T02:53:59.759Z,74.01
2018-10-15T02:55:53.740Z,73.81
2018-10-15T02:56:53.223Z,73.62
2018-10-15T02:58:49.199Z,73.72
2018-10-15T02:59:49.144Z,73.72
2018-10-15T03:01:43.589Z,73.97
2018-10-15T03:02:43.606Z,73.77
2018-10-15T03:04:38.566Z,73.97
2018-10-15T03:05:38.118Z,73.68
2018-10-15T03:07:32.489Z,74.35
2018-10-15T03:08:33.002Z,73.87
2018-10-15T03:10:26.964Z,73.58
2018-10-15T03:11:26.940Z,73.77
2018-10-15T03:13:21.894Z,73.68
2018-10-15T03:14:21.375Z,73.97
2018-10-15T03:16:18.841Z,73.52
2018-10-15T03:17:17.339Z,73.58
2018-10-15T03:19:10.826Z,73.33
2018-10-15T03:20:11.884Z,73.87
2018-10-15T03:22:05.239Z,73.77
2018-10-15T03:23:05.764Z,73.81
2018-10-15T03:24:59.680Z,74.35
2018-10-15T03:25:59.686Z,74.44
2018-10-15T03:27:54.619Z,74.83
2018-10-15T03:28:54.634Z,74.64
2018-10-15T03:30:48.568Z,74.83
2018-10-15T03:31:48.567Z,74.73
2018-10-15T03:33:42.999Z,74.26
2018-10-15T03:34:43.008Z,74.83
2018-10-15T03:36:37.437Z,75.02
2018-10-15T03:37:37.443Z,75.21
2018-10-15T03:39:33.900Z,75.40
2018-10-15T03:40:31.890Z,75.40
2018-10-15T03:42:26.374Z,75.21
2018-10-15T03:43:27.362Z,75.02
2018-10-15T03:45:20.784Z,75.50
2018-10-15T03:46:21.330Z,75.50
2018-10-15T03:48:16.744Z,75.70
2018-10-15T03:49:16.738Z,75.60
2018-10-15T03:51:11.175Z,75.50
2018-10-15T03:52:11.182Z,75.50
2018-10-15T03:54:04.606Z,75.79
2018-10-15T03:55:05.130Z,76.07
2018-10-15T03:56:59.091Z,76.17
2018-10-15T03:57:59.085Z,76.17
2018-10-15T03:59:53.548Z,76.37
2018-10-15T04:00:53.518Z,76.37
2018-10-15T04:02:48.987Z,76.56
2018-10-15T04:03:47.975Z,76.37
2018-10-15T04:05:44.422Z,76.65
2018-10-15T04:06:43.876Z,76.56
2018-10-15T04:08:38.901Z,76.65
2018-10-15T04:09:38.317Z,76.84
2018-10-15T04:11:32.782Z,76.94
2018-10-15T04:12:32.764Z,76.75
2018-10-15T04:14:29.244Z,77.04
2018-10-15T04:15:28.703Z,77.13
2018-10-15T04:17:23.144Z,77.04
2018-10-15T04:18:23.654Z,76.94
2018-10-15T04:20:20.098Z,76.84
2018-10-15T04:21:19.103Z,77.51
2018-10-15T04:23:15.042Z,77.48
2018-10-15T04:24:15.052Z,77.80
2018-10-15T04:26:12.483Z,78.05
2018-10-15T04:27:09.476Z,78.15
2018-10-15T04:29:05.484Z,77.95
2018-10-15T04:30:06.946Z,78.25
2018-10-15T04:32:01.402Z,78.44
2018-10-15T04:33:01.405Z,79.01
2018-10-15T04:34:57.844Z,79.21
2018-10-15T04:35:57.859Z,79.21
2018-10-15T04:37:51.902Z,79.68
2018-10-15T04:38:51.742Z,79.01
2018-10-15T04:40:46.688Z,79.59
2018-10-15T04:41:46.698Z,79.68
2018-10-15T04:43:42.635Z,80.16
2018-10-15T04:44:42.142Z,79.88
2018-10-15T04:46:36.604Z,80.16
2018-10-15T04:47:36.571Z,80.16
2018-10-15T04:49:31.146Z,79.97
2018-10-15T04:50:31.027Z,79.97
2018-10-15T04:52:25.482Z,79.97
2018-10-15T04:53:25.473Z,80.16
2018-10-15T04:55:22.013Z,79.78
2018-10-15T04:56:22.923Z,79.97
2018-10-15T04:58:15.835Z,80.07
2018-10-15T04:59:15.853Z,80.26
2018-10-15T05:01:12.275Z,79.68
2018-10-15T05:02:11.788Z,79.97
2018-10-15T05:04:07.732Z,80.64
2018-10-15T05:05:07.717Z,80.55
2018-10-15T05:07:02.664Z,80.35
2018-10-15T05:08:02.159Z,80.55
2018-10-15T05:09:56.623Z,80.55
2018-10-15T05:10:56.584Z,80.93
2018-10-15T05:12:51.042Z,81.41
2018-10-15T05:13:52.041Z,81.51
2018-10-15T05:15:47.029Z,81.79
2018-10-15T05:16:46.967Z,81.60
2018-10-15T05:18:43.900Z,82.14
2018-10-15T05:19:43.409Z,82.23
2018-10-15T05:21:39.873Z,82.23
2018-10-15T05:22:38.887Z,82.42
2018-10-15T05:24:34.872Z,82.32
2018-10-15T05:25:35.339Z,82.62
2018-10-15T05:27:30.797Z,83.19
2018-10-15T05:28:30.784Z,82.71
2018-10-15T05:30:25.398Z,82.90
2018-10-15T05:31:25.204Z,83.19
2018-10-15T05:33:19.666Z,83.29
2018-10-15T05:34:19.634Z,83.38
2018-10-15T05:36:14.153Z,83.58
2018-10-15T05:37:14.115Z,83.76
2018-10-15T05:39:09.056Z,84.15
2018-10-15T05:40:09.055Z,84.05
2018-10-15T05:42:03.509Z,84.25
2018-10-15T05:43:02.956Z,84.34
2018-10-15T05:44:58.354Z,85.30
2018-10-15T05:45:57.370Z,84.91
2018-10-15T05:47:54.827Z,84.63
2018-10-15T05:48:53.838Z,84.91
2018-10-15T05:50:47.742Z,84.72
2018-10-15T05:51:48.260Z,84.53
2018-10-15T05:53:42.705Z,84.34
2018-10-15T05:54:42.208Z,85.21
2018-10-15T05:56:38.253Z,84.63
2018-10-15T05:57:37.766Z,84.72
2018-10-15T05:59:32.684Z,85.01
2018-10-15T06:00:32.191Z,85.11
2018-10-15T06:02:26.118Z,84.34
2018-10-15T06:03:26.113Z,83.86
2018-10-15T06:05:20.076Z,84.15
2018-10-15T06:06:20.091Z,84.25
2018-10-15T06:08:13.977Z,83.67
2018-10-15T06:09:13.964Z,84.05
2018-10-15T06:11:08.931Z,83.95
2018-10-15T06:12:08.522Z,83.67
2018-10-15T06:14:04.939Z,84.05
2018-10-15T06:15:03.796Z,83.86
2018-10-15T06:16:58.270Z,83.29
2018-10-15T06:17:58.248Z,83.19
2018-10-15T06:19:51.759Z,83.48
2018-10-15T06:20:51.767Z,83.48
2018-10-15T06:22:47.775Z,83.09
2018-10-15T06:23:46.194Z,82.90
2018-10-15T06:25:40.663Z,82.90
2018-10-15T06:26:41.149Z,83.29
2018-10-15T06:28:37.633Z,82.71
2018-10-15T06:29:36.596Z,82.81
2018-10-15T06:31:31.001Z,82.71
2018-10-15T06:32:31.046Z,82.71
2018-10-15T06:34:25.474Z,82.81
2018-10-15T06:35:25.963Z,82.71
2018-10-15T06:37:18.979Z,82.62
2018-10-15T06:38:19.501Z,82.71
2018-10-15T06:40:14.885Z,82.90
2018-10-15T06:41:15.423Z,82.62
2018-10-15T06:43:11.635Z,82.42
2018-10-15T06:44:11.721Z,82.81
2018-10-15T06:46:07.597Z,81.89
2018-10-15T06:47:06.057Z,82.65
2018-10-15T06:49:00.497Z,82.37
2018-10-15T06:50:01.536Z,82.65
2018-10-15T06:51:55.022Z,81.66
2018-10-15T06:52:54.517Z,81.98
2018-10-15T06:54:48.471Z,81.41
2018-10-15T06:55:48.951Z,80.83
2018-10-15T06:57:44.397Z,80.74
2018-10-15T06:58:44.868Z,80.74
2018-10-15T07:00:40.333Z,80.64
2018-10-15T07:01:40.315Z,80.07
2018-10-15T07:03:35.282Z,79.91
2018-10-15T07:04:35.697Z,79.91
2018-10-15T07:06:30.735Z,79.53
2018-10-15T07:07:30.918Z,79.14
2018-10-15T07:09:24.191Z,78.28
2018-10-15T07:10:24.203Z,78.09
2018-10-15T07:12:18.736Z,78.38
2018-10-15T07:13:18.722Z,78.09
2018-10-15T07:15:15.097Z,77.36
2018-10-15T07:16:14.593Z,77.33
2018-10-15T07:18:09.021Z,77.04
2018-10-15T07:19:09.503Z,76.98
2018-10-15T07:21:06.957Z,76.40
2018-10-15T07:22:05.464Z,76.40
2018-10-15T07:23:58.405Z,76.12
2018-10-15T07:24:58.364Z,76.21
2018-10-15T07:26:51.871Z,75.63
2018-10-15T07:27:51.842Z,75.54
2018-10-15T07:29:47.768Z,75.73
2018-10-15T07:30:47.773Z,75.54
2018-10-15T07:32:42.737Z,75.35
2018-10-15T07:33:43.873Z,75.35
2018-10-15T07:35:35.632Z,74.77
2018-10-15T07:36:35.624Z,74.96
2018-10-15T07:38:32.097Z,74.58
2018-10-15T07:39:29.105Z,74.01
2018-10-15T07:41:25.047Z,74.23
2018-10-15T07:42:25.018Z,73.85
2018-10-15T07:44:19.521Z,74.04
2018-10-15T07:45:19.466Z,73.85
2018-10-15T07:47:14.929Z,73.37
2018-10-15T07:48:13.911Z,73.66
2018-10-15T07:50:08.876Z,73.66
2018-10-15T07:51:08.339Z,72.89
2018-10-15T07:53:02.864Z,73.08
2018-10-15T07:54:02.812Z,73.27
2018-10-15T07:55:57.264Z,73.18
2018-10-15T07:56:57.246Z,73.11
2018-10-15T07:58:52.708Z,72.83
2018-10-15T07:59:51.711Z,72.44
2018-10-15T08:01:47.727Z,72.83
2018-10-15T08:02:47.692Z,72.64
2018-10-15T08:04:43.659Z,71.96
2018-10-15T08:05:44.223Z,71.77
2018-10-15T08:07:38.615Z,71.67
2018-10-15T08:08:38.190Z,71.39
2018-10-15T08:10:35.045Z,71.29
2018-10-15T08:11:35.546Z,71.19
2018-10-15T08:13:28.483Z,70.94
2018-10-15T08:14:28.496Z,70.75
2018-10-15T08:16:23.007Z,70.75
2018-10-15T08:17:22.918Z,70.37
2018-10-15T08:19:16.366Z,70.17
2018-10-15T08:20:16.400Z,70.37
2018-10-15T08:22:13.417Z,69.40
2018-10-15T08:23:12.347Z,69.31
2018-10-15T08:25:06.738Z,69.50
2018-10-15T08:26:07.333Z,69.31
2018-10-15T08:28:01.230Z,68.48
2018-10-15T08:29:01.202Z,68.38
2018-10-15T08:30:55.683Z,68.38
2018-10-15T08:31:55.651Z,68.57
2018-10-15T08:33:50.113Z,67.80
2018-10-15T08:34:50.200Z,67.71
2018-10-15T08:36:45.567Z,67.22
2018-10-15T08:37:44.549Z,67.32
2018-10-15T08:39:39.000Z,66.84
2018-10-15T08:40:39.000Z,66.94
2018-10-15T08:42:35.959Z,66.55
2018-10-15T08:43:34.455Z,66.55
2018-10-15T08:45:29.935Z,66.97
2018-10-15T08:46:29.379Z,66.20
2018-10-15T08:48:26.345Z,65.81
2018-10-15T08:49:25.314Z,65.81
2018-10-15T08:51:19.792Z,66.10
2018-10-15T08:52:20.797Z,66.20
2018-10-15T08:54:14.271Z,65.81
2018-10-15T08:55:14.217Z,65.63
2018-10-15T08:57:10.199Z,65.63
2018-10-15T08:58:10.760Z,65.63
2018-10-15T09:00:04.612Z,65.24
2018-10-15T09:01:04.674Z,65.63
2018-10-15T09:02:59.118Z,64.76
2018-10-15T09:03:59.145Z,65.17
2018-10-15T09:05:57.019Z,64.40
2018-10-15T09:06:55.569Z,64.40
2018-10-15T09:08:49.785Z,64.31
2018-10-15T09:09:49.690Z,64.40
2018-10-15T09:11:45.567Z,64.02
2018-10-15T09:12:45.616Z,63.64
2018-10-15T09:14:40.058Z,63.18
2018-10-15T09:15:40.023Z,62.80
2018-10-15T09:17:35.995Z,62.80
2018-10-15T09:18:35.971Z,62.70
2018-10-15T09:20:33.433Z,62.51
2018-10-15T09:21:32.035Z,62.70
2018-10-15T09:23:27.878Z,62.32
2018-10-15T09:24:27.870Z,62.32
2018-10-15T09:26:22.350Z,62.22
2018-10-15T09:27:22.957Z,61.48
2018-10-15T09:29:18.265Z,61.38
2018-10-15T09:30:18.276Z,61.00
2018-10-15T09:32:14.281Z,60.80
2018-10-15T09:33:14.787Z,60.42
2018-10-15T09:35:10.232Z,60.52
2018-10-15T09:36:10.174Z,60.13
2018-10-15T09:38:06.285Z,60.61
2018-10-15T09:39:06.196Z,60.52
2018-10-15T09:41:01.216Z,59.87
2018-10-15T09:42:01.143Z,59.78
2018-10-15T09:43:55.107Z,59.30
2018-10-15T09:44:55.094Z,59.48
2018-10-15T09:46:51.604Z,59.48
2018-10-15T09:47:51.040Z,59.68
2018-10-15T09:49:47.026Z,59.10
2018-10-15T09:50:45.549Z,59.30
2018-10-15T09:52:39.936Z,59.00
2018-10-15T09:53:39.933Z,59.03
2018-10-15T09:55:34.911Z,58.75
2018-10-15T09:56:34.359Z,58.75
2018-10-15T09:58:30.336Z,59.03
2018-10-15T09:59:30.332Z,58.75
2018-10-15T10:01:26.306Z,58.75
2018-10-15T10:02:26.784Z,58.55
2018-10-15T10:04:21.253Z,58.10
2018-10-15T10:05:20.728Z,58.10
2018-10-15T10:07:15.321Z,57.42
2018-10-15T10:08:15.258Z,57.90
2018-10-15T10:10:08.747Z,58.00
2018-10-15T10:11:08.700Z,57.23
2018-10-15T10:13:03.263Z,56.07
2018-10-15T10:14:03.151Z,55.88
2018-10-15T10:15:56.606Z,56.56
2018-10-15T10:16:56.706Z,56.16
2018-10-15T10:18:53.655Z,56.68
2018-10-15T10:19:52.560Z,56.10
2018-10-15T10:21:49.085Z,55.90
2018-10-15T10:22:49.053Z,55.90
2018-10-15T10:24:45.050Z,56.00
2018-10-15T10:25:44.468Z,55.90
2018-10-15T10:27:40.917Z,55.62
2018-10-15T10:28:40.611Z,55.71
2018-10-15T10:30:36.931Z,55.45
2018-10-15T10:31:37.905Z,55.35
2018-10-15T10:33:30.913Z,54.77
2018-10-15T10:34:31.356Z,54.87
2018-10-15T10:36:26.849Z,54.49
2018-10-15T10:37:26.804Z,54.87
2018-10-15T10:39:22.741Z,54.97
2018-10-15T10:40:22.796Z,54.49
2018-10-15T10:42:17.815Z,54.29
2018-10-15T10:43:17.204Z,54.10
2018-10-15T10:45:13.184Z,54.77
2018-10-15T10:46:13.193Z,54.29
2018-10-15T10:48:09.574Z,54.22
2018-10-15T10:49:09.066Z,54.00
2018-10-15T10:51:03.527Z,53.83
2018-10-15T10:52:04.040Z,53.55
2018-10-15T10:53:59.467Z,53.93
2018-10-15T10:54:59.478Z,53.83
2018-10-15T10:56:53.935Z,53.25
2018-10-15T10:57:53.998Z,53.25
2018-10-15T10:59:50.425Z,53.25
2018-10-15T11:00:49.912Z,53.06
2018-10-15T11:02:45.438Z,52.77
2018-10-15T11:03:44.371Z,51.93
2018-10-15T11:07:13.656Z,51.64
2018-10-15T11:08:13.296Z,52.02
2018-10-15T11:10:09.098Z,52.02
2018-10-15T11:11:09.606Z,52.12
2018-10-15T11:13:06.104Z,50.76
2018-10-15T11:14:05.074Z,50.96
2018-10-15T11:16:01.532Z,49.90
2018-10-15T11:17:01.020Z,50.28
2018-10-15T11:18:57.579Z,49.92
2018-10-15T11:19:56.985Z,49.92
2018-10-15T11:21:51.468Z,49.82
2018-10-15T11:22:51.459Z,49.24
2018-10-15T11:24:45.931Z,49.34
2018-10-15T11:25:46.923Z,48.86
2018-10-15T11:27:41.901Z,49.24
2018-10-15T11:28:42.406Z,49.12
2018-10-15T11:30:38.830Z,49.51
2018-10-15T11:31:38.331Z,49.34
2018-10-15T11:33:34.282Z,49.51
2018-10-15T11:34:33.889Z,49.24
2018-10-15T11:36:30.244Z,48.95
2018-10-15T11:37:29.737Z,49.54
2018-10-15T11:39:25.701Z,49.54
2018-10-15T11:40:25.698Z,49.24
2018-10-15T11:42:22.167Z,49.34
2018-10-15T11:43:22.662Z,49.34
2018-10-15T11:45:16.101Z,49.05
2018-10-15T11:46:16.101Z,49.07
2018-10-15T11:48:10.544Z,49.34
2018-10-15T11:49:11.068Z,48.69
2018-10-15T11:51:06.555Z,48.69
2018-10-15T11:52:06.540Z,48.88
2018-10-15T11:54:01.114Z,48.20
2018-10-15T11:55:00.995Z,47.81
2018-10-15T11:56:57.951Z,47.43
2018-10-15T11:57:56.936Z,47.14
2018-10-15T11:59:54.416Z,46.48
2018-10-15T12:00:52.903Z,46.84
2018-10-15T12:02:49.367Z,47.14
2018-10-15T12:03:49.854Z,46.94
2018-10-15T12:05:44.783Z,46.94
2018-10-15T12:06:44.793Z,47.43
2018-10-15T12:08:40.745Z,46.94
2018-10-15T12:09:40.741Z,47.14
2018-10-15T12:11:35.212Z,45.88
2018-10-15T12:12:35.201Z,45.40
2018-10-15T12:14:30.654Z,45.42
2018-10-15T12:15:29.664Z,45.32
2018-10-15T12:17:24.135Z,45.13
2018-10-15T12:18:25.127Z,44.45
2018-10-15T12:20:19.605Z,43.77
2018-10-15T12:21:18.623Z,43.87
2018-10-15T12:23:13.056Z,43.68
2018-10-15T12:24:13.100Z,43.38
2018-10-15T12:26:07.564Z,43.58
2018-10-15T12:27:07.551Z,43.38
2018-10-15T12:29:01.999Z,44.06
2018-10-15T12:30:02.570Z,44.06
2018-10-15T12:31:56.456Z,43.19
2018-10-15T12:32:56.450Z,42.80
2018-10-15T12:34:50.857Z,42.13
2018-10-15T12:35:50.865Z,42.22
2018-10-15T12:37:44.826Z,42.03
2018-10-15T12:38:44.845Z,42.13
2018-10-15T12:40:40.802Z,42.14
2018-10-15T12:41:38.806Z,42.05
2018-10-15T12:43:33.774Z,41.86
2018-10-15T12:44:33.763Z,41.76
2018-10-15T12:46:30.204Z,41.86
2018-10-15T12:47:29.202Z,42.05
2018-10-15T12:49:23.649Z,41.27
2018-10-15T12:50:24.208Z,41.37
2018-10-15T12:52:21.130Z,40.99
2018-10-15T12:53:19.639Z,41.00
2018-10-15T12:55:16.587Z,40.69
2018-10-15T12:56:16.078Z,40.59
2018-10-15T12:58:10.022Z,40.31
2018-10-15T12:59:10.017Z,40.31
2018-10-15T13:01:05.986Z,40.31
2018-10-15T13:02:05.950Z,40.23
2018-10-15T13:04:03.430Z,40.11
2018-10-15T13:05:00.442Z,40.11
2018-10-15T13:06:56.394Z,39.94
2018-10-15T13:07:56.911Z,39.72
2018-10-15T13:09:51.363Z,39.82
2018-10-15T13:10:50.851Z,39.92
2018-10-15T13:12:46.842Z,40.01
2018-10-15T13:13:46.905Z,40.21
2018-10-15T13:15:41.294Z,40.11
2018-10-15T13:16:41.776Z,39.82
2018-10-15T13:18:35.722Z,39.92
2018-10-15T13:19:36.709Z,39.92
2018-10-15T13:21:30.191Z,40.11
2018-10-15T13:22:31.183Z,39.82
2018-10-15T13:24:24.775Z,39.92
2018-10-15T13:25:25.744Z,40.23
2018-10-15T13:27:20.749Z,40.03
2018-10-15T13:28:20.729Z,39.72
2018-10-15T13:30:16.690Z,40.13
2018-10-15T13:31:17.192Z,39.43
2018-10-15T13:33:12.783Z,39.53
2018-10-15T13:34:12.676Z,39.72
2018-10-15T13:36:09.137Z,39.34
2018-10-15T13:37:08.649Z,40.01
2018-10-15T13:39:05.129Z,40.21
2018-10-15T13:40:04.600Z,39.92
2018-10-15T13:42:00.591Z,40.71
2018-10-15T13:43:00.565Z,40.71
2018-10-15T13:44:56.592Z,40.33
2018-10-15T13:45:56.504Z,40.23
2018-10-15T13:47:50.987Z,40.71
2018-10-15T13:48:51.454Z,40.71
2018-10-15T13:50:46.966Z,40.79
2018-10-15T13:51:46.950Z,40.99
2018-10-15T13:53:42.905Z,40.69
2018-10-15T13:54:43.412Z,40.89
2018-10-15T13:56:38.879Z,41.08
2018-10-15T13:57:38.856Z,41.17
2018-10-15T13:59:33.356Z,41.37
2018-10-15T14:00:34.319Z,41.58
2018-10-15T14:02:30.296Z,40.69
2018-10-15T14:03:29.291Z,40.61
2018-10-15T14:05:25.773Z,40.52
2018-10-15T14:06:25.232Z,40.42
2018-10-15T14:08:21.220Z,39.84
2018-10-15T14:09:21.702Z,39.45
2018-10-15T14:11:16.663Z,40.03
2018-10-15T14:12:16.653Z,39.16
2018-10-15T14:14:11.662Z,38.78
2018-10-15T14:15:11.639Z,39.06
2018-10-15T14:17:08.101Z,39.55
2018-10-15T14:18:07.606Z,39.45
2018-10-15T14:20:04.068Z,39.16
2018-10-15T14:21:03.565Z,39.16
2018-10-15T14:23:00.520Z,38.39
2018-10-15T14:23:59.508Z,39.16
2018-10-15T14:25:56.034Z,39.16
2018-10-15T14:26:55.485Z,38.68
2018-10-15T14:28:50.436Z,38.48
2018-10-15T14:29:49.935Z,38.48
2018-10-15T14:31:45.873Z,39.74
2018-10-15T14:32:45.887Z,40.23
2018-10-15T14:34:45.351Z,40.23
2018-10-15T14:35:44.368Z,40.71
2018-10-15T14:37:39.830Z,39.74
2018-10-15T14:38:40.303Z,38.96
2018-10-15T14:40:36.287Z,38.09
2018-10-15T14:41:35.756Z,38.39
2018-10-15T14:43:31.747Z,38.39
2018-10-15T14:44:32.233Z,37.90
2018-10-15T14:46:27.705Z,38.48
2018-10-15T14:47:28.698Z,38.58
2018-10-15T14:49:24.654Z,38.68
2018-10-15T14:50:23.665Z,38.48
2018-10-15T14:52:20.140Z,39.06
2018-10-15T14:53:20.125Z,38.96
2018-10-15T14:55:16.093Z,38.27
2018-10-15T14:56:15.545Z,38.46
2018-10-15T14:58:12.083Z,38.46
2018-10-15T14:59:11.552Z,38.37
2018-10-15T15:01:10.967Z,38.46
2018-10-15T15:02:10.464Z,38.19
2018-10-15T15:04:05.611Z,38.39
2018-10-15T15:05:05.584Z,39.06
2018-10-15T15:07:02.150Z,38.39
2018-10-15T15:08:01.566Z,38.00
2018-10-15T15:09:57.504Z,37.98
2018-10-15T15:10:57.514Z,37.98
2018-10-15T15:12:53.991Z,38.37
2018-10-15T15:13:53.514Z,38.37
2018-10-15T15:15:49.457Z,38.56
2018-10-15T15:16:49.462Z,39.04
2018-10-15T15:18:45.443Z,39.24
2018-10-15T15:19:45.414Z,38.07
2018-10-15T15:21:41.899Z,38.66
2018-10-15T15:22:41.363Z,38.95
2018-10-15T15:24:37.836Z,40.96
2018-10-15T15:25:38.323Z,41.55
2018-10-15T15:27:33.325Z,42.13
2018-10-15T15:28:33.797Z,41.93
2018-10-15T15:30:30.253Z,41.64
2018-10-15T15:31:30.752Z,41.82
2018-10-15T15:33:25.729Z,42.88
2018-10-15T15:34:25.233Z,42.59
2018-10-15T15:36:22.277Z,42.10
2018-10-15T15:37:21.172Z,42.40
2018-10-15T15:39:17.640Z,43.55
2018-10-15T15:40:17.126Z,42.88
2018-10-15T15:42:13.093Z,42.68
2018-10-15T15:43:13.087Z,43.17
2018-10-15T15:45:10.613Z,41.99
2018-10-15T15:46:09.018Z,43.95
2018-10-15T15:48:14.511Z,45.37
2018-10-15T15:49:14.488Z,45.08
2018-10-15T15:51:10.462Z,45.66
2018-10-15T15:52:10.460Z,45.18
2018-10-15T15:54:07.924Z,42.93
2018-10-15T15:55:07.345Z,42.35
2018-10-15T15:57:02.885Z,43.90
2018-10-15T15:58:02.385Z,44.40
2018-10-15T15:59:59.374Z,44.31
2018-10-15T16:00:59.357Z,44.38
2018-10-15T16:02:55.382Z,45.83
2018-10-15T16:03:54.317Z,46.03
2018-10-15T16:05:50.260Z,46.70
2018-10-15T16:06:50.251Z,47.28
2018-10-15T16:08:46.236Z,47.26
2018-10-15T16:09:46.216Z,47.26
2018-10-15T16:11:40.689Z,48.03
2018-10-15T16:12:40.659Z,48.61
2018-10-15T16:14:37.650Z,48.30
2018-10-15T16:15:37.625Z,48.11
2018-10-15T16:17:31.117Z,48.39
2018-10-15T16:18:31.116Z,48.79
2018-10-15T16:20:32.111Z,48.69
2018-10-15T16:21:32.584Z,49.27
2018-10-15T16:23:28.558Z,49.34
2018-10-15T16:24:28.049Z,50.21
2018-10-15T16:26:23.491Z,50.21
2018-10-15T16:27:23.509Z,49.92
2018-10-15T16:29:18.471Z,50.57
2018-10-15T16:30:17.975Z,50.86
2018-10-15T16:32:12.946Z,50.96
2018-10-15T16:33:12.929Z,50.86
2018-10-15T16:35:09.392Z,51.44
2018-10-15T16:36:09.821Z,51.03
2018-10-15T16:38:04.322Z,51.41
2018-10-15T16:39:04.816Z,51.61
2018-10-15T16:41:00.768Z,52.19
2018-10-15T16:41:59.773Z,52.86
2018-10-15T16:43:54.742Z,52.57
2018-10-15T16:44:55.229Z,53.05
2018-10-15T16:46:50.683Z,53.22
2018-10-15T16:47:51.191Z,52.83
2018-10-15T16:49:51.594Z,53.13
2018-10-15T16:50:50.654Z,53.13
2018-10-15T16:52:44.756Z,53.61
2018-10-15T16:53:44.777Z,54.16
2018-10-15T16:55:41.274Z,53.77
2018-10-15T16:57:57.172Z,54.16
2018-10-15T17:00:12.668Z,54.44
2018-10-15T17:01:13.565Z,55.00
2018-10-15T17:03:48.200Z,54.03
2018-10-15T17:04:48.114Z,54.22
2018-10-15T17:06:44.016Z,54.52
2018-10-15T17:07:44.002Z,55.29
2018-10-15T17:09:39.956Z,55.77
2018-10-15T17:10:39.948Z,54.97
2018-10-15T17:12:37.915Z,55.74
2018-10-15T17:14:53.382Z,55.93
2018-10-15T17:15:53.407Z,55.93
2018-10-15T17:17:48.809Z,55.65
2018-10-15T17:18:48.823Z,56.80
2018-10-15T17:20:45.805Z,56.41
2018-10-15T17:21:44.788Z,57.06
2018-10-15T17:23:40.762Z,57.06
2018-10-15T17:24:40.765Z,57.83
2018-10-15T17:26:39.215Z,58.22
2018-10-15T17:27:36.692Z,58.70
2018-10-15T17:29:32.697Z,58.22
2018-10-15T17:30:32.477Z,58.98
2018-10-15T17:32:50.921Z,58.70
2018-10-15T17:33:52.099Z,59.27
2018-10-15T17:35:47.346Z,59.24
2018-10-15T17:36:47.055Z,59.24
2018-10-15T17:39:01.814Z,59.34
2018-10-15T17:40:01.801Z,59.44
2018-10-15T17:41:56.773Z,59.63
2018-10-15T17:42:56.777Z,59.44
2018-10-15T17:44:53.678Z,60.49
2018-10-15T17:45:52.694Z,60.27
2018-10-15T17:47:50.707Z,60.27
2018-10-15T17:48:50.659Z,60.08
2018-10-15T17:50:49.165Z,60.37
2018-10-15T17:51:48.626Z,60.66
2018-10-15T17:53:45.115Z,60.94
2018-10-15T17:54:44.621Z,61.04
2018-10-15T17:56:41.610Z,61.61
2018-10-15T17:57:42.129Z,61.33
2018-10-15T17:59:37.542Z,62.16
2018-10-15T18:00:36.546Z,62.29
2018-10-15T18:02:33.009Z,62.45
2018-10-15T18:03:33.011Z,62.74
2018-10-15T18:05:28.385Z,62.74
2018-10-15T18:06:28.423Z,63.12
2018-10-15T18:08:24.408Z,63.32
2018-10-15T18:09:24.360Z,63.51
2018-10-15T18:11:22.485Z,64.37
2018-10-15T18:12:22.579Z,64.18
2018-10-15T18:14:18.979Z,64.85
2018-10-15T18:15:18.550Z,65.14
2018-10-15T18:17:16.506Z,65.30
2018-10-15T18:18:16.469Z,65.40
2018-10-15T18:20:12.445Z,65.49
2018-10-15T18:21:12.439Z,66.26
2018-10-15T18:23:08.422Z,65.97
2018-10-15T18:24:08.376Z,66.16
2018-10-15T18:26:04.373Z,66.93
2018-10-15T18:27:05.833Z,66.74
2018-10-15T18:29:00.357Z,67.22
2018-10-15T18:30:00.286Z,67.29
2018-10-15T18:31:56.810Z,67.29
2018-10-15T18:32:56.865Z,67.67
2018-10-15T18:34:52.200Z,68.63
2018-10-15T18:35:52.166Z,68.53
2018-10-15T18:37:49.539Z,68.82
2018-10-15T18:38:48.102Z,69.11
2018-10-15T18:40:44.144Z,69.20
2018-10-15T18:41:44.157Z,68.73
2018-10-15T18:43:39.999Z,68.44
2018-10-15T18:44:40.016Z,68.82
2018-10-15T18:46:35.975Z,68.82
2018-10-15T18:47:35.956Z,68.82
2018-10-15T18:49:34.445Z,69.30
2018-10-15T18:50:33.937Z,69.20
2018-10-15T18:52:29.918Z,70.07
2018-10-15T18:53:29.865Z,69.59